createdAt,value
2024-05-09T00:00:43.394Z,100.00
2024-05-09T00:03:12.201Z,100.00
2024-05-09T00:05:41.937Z,100.00
2024-05-09T00:08:12.825Z,100.00
2024-05-09T00:10:41.534Z,100.00
2024-05-09T00:13:11.106Z,100.00
2024-05-09T00:15:39.521Z,100.00
2024-05-09T00:18:09.001Z,100.00
2024-05-09T00:20:40.297Z,100.00
2024-05-09T00:23:12.992Z,100.00
2024-05-09T00:25:44.293Z,100.00
2024-05-09T00:28:13.011Z,100.00
2024-05-09T00:30:41.174Z,100.00
2024-05-09T00:33:10.770Z,100.00
2024-05-09T00:35:39.719Z,100.00
2024-05-09T00:38:07.896Z,100.00
2024-05-09T00:40:41.626Z,100.00
2024-05-09T00:43:12.412Z,100.00
2024-05-09T00:45:41.410Z,100.00
2024-05-09T00:48:12.554Z,100.00
2024-05-09T00:50:43.923Z,100.00
2024-05-09T00:53:13.421Z,100.00
2024-05-09T00:55:45.111Z,100.00
2024-05-09T00:58:16.335Z,100.00
2024-05-09T01:00:44.951Z,100.00
2024-05-09T01:03:14.345Z,100.00
2024-05-09T01:05:43.474Z,100.00
2024-05-09T01:08:12.274Z,100.00
2024-05-09T01:10:43.913Z,100.00
2024-05-09T01:13:15.782Z,100.00
2024-05-09T01:15:44.075Z,100.00
2024-05-09T01:18:13.455Z,100.00
2024-05-09T01:20:44.506Z,100.00
2024-05-09T01:23:16.748Z,100.00
2024-05-09T01:25:45.300Z,100.00
2024-05-09T01:28:14.122Z,100.00
2024-05-09T01:30:42.203Z,100.00
2024-05-09T01:33:11.851Z,100.00
2024-05-09T01:35:42.234Z,100.00
2024-05-09T01:38:11.606Z,100.00
2024-05-09T01:40:42.248Z,100.00
2024-05-09T01:43:11.409Z,100.00
2024-05-09T01:45:40.678Z,100.00
2024-05-09T01:48:10.553Z,100.00
2024-05-09T01:50:41.944Z,100.00
2024-05-09T01:53:11.960Z,100.00
2024-05-09T01:55:43.289Z,100.00
2024-05-09T01:58:11.481Z,100.00
2024-05-09T02:00:42.026Z,100.00
2024-05-09T02:03:13.941Z,100.00
2024-05-09T02:05:45.103Z,100.00
2024-05-09T02:08:14.184Z,100.00
2024-05-09T02:10:45.244Z,100.00
2024-05-09T02:13:13.852Z,100.00
2024-05-09T02:15:41.699Z,100.00
2024-05-09T02:18:09.895Z,100.00
2024-05-09T02:20:39.793Z,100.00
2024-05-09T02:23:09.563Z,100.00
2024-05-09T02:25:38.077Z,100.00
2024-05-09T02:28:08.762Z,100.00
2024-05-09T02:30:40.657Z,100.00
2024-05-09T02:33:12.471Z,100.00
2024-05-09T02:35:43.002Z,100.00
2024-05-09T02:38:12.080Z,100.00
2024-05-09T02:40:40.764Z,100.00
2024-05-09T02:43:13.238Z,100.00
2024-05-09T02:45:41.729Z,100.00
2024-05-09T02:48:11.691Z,100.00
2024-05-09T02:50:40.469Z,100.00
2024-05-09T02:53:09.754Z,100.00
2024-05-09T02:55:39.158Z,100.00
2024-05-09T02:58:08.183Z,100.00
2024-05-09T03:00:41.492Z,100.00
2024-05-09T03:03:13.404Z,100.00
2024-05-09T03:05:43.567Z,100.00
2024-05-09T03:08:12.303Z,100.00
2024-05-09T03:10:40.862Z,100.00
2024-05-09T03:13:09.905Z,100.00
2024-05-09T03:15:40.916Z,100.00
2024-05-09T03:18:09.952Z,100.00
2024-05-09T03:20:38.797Z,100.00
2024-05-09T03:23:09.332Z,100.00
2024-05-09T03:25:38.271Z,100.00
2024-05-09T03:28:07.106Z,100.00
2024-05-09T03:30:40.791Z,100.00
2024-05-09T03:33:15.351Z,100.00
2024-05-09T03:35:44.042Z,100.00
2024-05-09T03:38:12.413Z,100.00
2024-05-09T03:40:45.632Z,100.00
2024-05-09T03:43:14.010Z,100.00
2024-05-09T03:45:42.812Z,100.00
2024-05-09T03:48:13.940Z,100.00
2024-05-09T03:50:42.708Z,100.00
2024-05-09T03:53:11.824Z,100.00
2024-05-09T03:55:40.253Z,100.00
2024-05-09T03:58:08.589Z,100.00
2024-05-09T04:00:39.292Z,100.00
2024-05-09T04:03:11.301Z,100.00
2024-05-09T04:05:44.381Z,100.00
2024-05-09T04:08:13.297Z,100.00
2024-05-09T04:10:41.556Z,100.00
2024-05-09T04:13:10.196Z,100.00
2024-05-09T04:15:38.718Z,100.00
2024-05-09T04:18:07.154Z,100.00
2024-05-09T04:20:39.211Z,100.00
2024-05-09T04:23:13.397Z,100.00
2024-05-09T04:25:43.304Z,100.00
2024-05-09T04:28:11.858Z,100.00
2024-05-09T04:30:41.478Z,100.00
2024-05-09T04:33:12.199Z,100.00
2024-05-09T04:35:42.645Z,100.00
2024-05-09T04:38:14.525Z,100.00
2024-05-09T04:40:43.711Z,100.00
2024-05-09T04:43:15.417Z,100.00
2024-05-09T04:45:43.749Z,100.00
2024-05-09T04:48:12.320Z,100.00
2024-05-09T04:50:40.458Z,100.00
2024-05-09T04:53:10.569Z,100.00
2024-05-09T04:55:42.105Z,100.00
2024-05-09T04:58:10.158Z,100.00
2024-05-09T05:00:40.185Z,100.00
2024-05-09T05:03:13.491Z,100.00
2024-05-09T05:05:45.151Z,100.00
2024-05-09T05:08:15.232Z,100.00
2024-05-09T05:10:47.066Z,100.00
2024-05-09T05:13:16.205Z,100.00
2024-05-09T05:15:44.430Z,100.00
2024-05-09T05:18:12.480Z,100.00
2024-05-09T05:20:40.646Z,100.00
2024-05-09T05:23:11.943Z,100.00
2024-05-09T05:25:40.855Z,100.00
2024-05-09T05:28:11.644Z,100.00
2024-05-09T05:30:41.226Z,100.00
2024-05-09T05:33:12.024Z,100.00
2024-05-09T05:35:40.173Z,100.00
2024-05-09T05:38:09.094Z,100.00
2024-05-09T05:40:38.865Z,100.00
2024-05-09T05:43:16.948Z,100.00
2024-05-09T05:45:45.098Z,100.00
2024-05-09T05:48:14.288Z,100.00
2024-05-09T05:50:42.450Z,100.00
2024-05-09T05:53:11.318Z,100.00
2024-05-09T05:55:41.044Z,100.00
2024-05-09T05:58:12.397Z,100.00
2024-05-09T06:00:41.187Z,100.00
2024-05-09T06:03:10.983Z,100.00
2024-05-09T06:05:39.961Z,100.00
2024-05-09T06:08:09.426Z,100.00
2024-05-09T06:10:39.984Z,97.19
2024-05-09T06:13:13.842Z,97.29
2024-05-09T06:15:42.825Z,94.03
2024-05-09T06:18:12.760Z,97.29
2024-05-09T06:20:42.774Z,97.66
2024-05-09T06:23:12.190Z,89.39
2024-05-09T06:25:40.740Z,86.23
2024-05-09T06:28:11.790Z,86.76
2024-05-09T06:30:41.895Z,85.57
2024-05-09T06:33:13.781Z,85.82
2024-05-09T06:35:43.882Z,78.65
2024-05-09T06:38:12.349Z,83.27
2024-05-09T06:40:42.931Z,88.67
2024-05-09T06:43:17.624Z,90.80
2024-05-09T06:45:48.618Z,94.72
2024-05-09T06:48:19.829Z,88.40
2024-05-09T06:50:48.154Z,91.94
2024-05-09T06:53:17.408Z,95.49
2024-05-09T06:55:45.974Z,89.70
2024-05-09T06:58:17.078Z,87.02
2024-05-09T07:00:45.394Z,85.55
2024-05-09T07:03:17.445Z,84.01
2024-05-09T07:05:48.634Z,78.62
2024-05-09T07:08:18.374Z,79.55
2024-05-09T07:10:47.185Z,84.29
2024-05-09T07:13:18.024Z,87.90
2024-05-09T07:15:45.998Z,92.83
2024-05-09T07:18:16.695Z,86.94
2024-05-09T07:20:47.651Z,88.35
2024-05-09T07:23:16.556Z,76.44
2024-05-09T07:25:45.129Z,66.05
2024-05-09T07:28:17.871Z,56.56
2024-05-09T07:30:46.495Z,52.34
2024-05-09T07:33:18.371Z,48.53
2024-05-09T07:35:47.382Z,58.74
2024-05-09T07:38:15.461Z,51.01
2024-05-09T07:40:43.893Z,50.76
2024-05-09T07:43:12.363Z,55.84
2024-05-09T07:45:51.276Z,57.24
2024-05-09T07:52:37.238Z,59.70
2024-05-09T07:53:45.924Z,57.56
2024-05-09T07:56:18.615Z,55.52
2024-05-09T07:58:47.532Z,53.65
2024-05-09T08:01:18.812Z,57.39
2024-05-09T08:03:47.046Z,59.94
2024-05-09T08:06:15.209Z,61.45
2024-05-09T08:08:43.314Z,56.06
2024-05-09T08:11:11.709Z,51.04
2024-05-09T08:13:40.040Z,51.38
2024-05-09T08:16:08.325Z,57.90
2024-05-09T08:18:39.326Z,63.44
2024-05-09T08:21:07.379Z,61.05
2024-05-09T08:23:35.456Z,59.56
2024-05-09T08:26:03.438Z,70.29
2024-05-09T08:28:31.541Z,65.08
2024-05-09T08:31:02.399Z,67.67
2024-05-09T08:33:33.226Z,70.37
2024-05-09T08:36:04.122Z,71.50
2024-05-09T08:38:32.332Z,65.83
2024-05-09T08:41:03.012Z,69.13
2024-05-09T08:43:31.492Z,65.66
2024-05-09T08:46:00.659Z,63.30
2024-05-09T08:48:29.316Z,63.95
2024-05-09T08:50:57.856Z,69.16
2024-05-09T08:53:28.636Z,64.68
2024-05-09T08:56:01.468Z,71.78
2024-05-09T08:58:30.843Z,70.08
2024-05-09T09:00:59.760Z,63.97
2024-05-09T09:03:30.861Z,64.55
2024-05-09T09:06:05.298Z,67.06
2024-05-09T09:08:39.654Z,61.03
2024-05-09T09:11:07.754Z,60.11
2024-05-09T09:13:35.593Z,60.21
2024-05-09T09:16:03.727Z,60.72
2024-05-09T09:18:32.286Z,60.40
2024-05-09T09:21:00.402Z,68.39
2024-05-09T09:23:28.792Z,67.76
2024-05-09T09:26:02.009Z,62.71
2024-05-09T09:28:30.307Z,61.45
2024-05-09T09:31:02.293Z,65.98
2024-05-09T09:33:30.691Z,56.74
2024-05-09T09:35:58.751Z,66.70
2024-05-09T09:38:31.162Z,62.48
2024-05-09T09:41:07.102Z,61.02
2024-05-09T09:43:36.394Z,58.77
2024-05-09T09:46:09.558Z,67.45
2024-05-09T09:48:40.943Z,61.79
2024-05-09T09:51:09.910Z,63.05
2024-05-09T09:53:39.343Z,59.23
2024-05-09T09:56:11.443Z,63.04
2024-05-09T09:58:40.584Z,63.13
2024-05-09T10:01:08.552Z,57.91
2024-05-09T10:30:14.345Z,57.87
2024-05-09T10:32:46.263Z,59.00
2024-05-09T10:35:14.255Z,70.00
2024-05-09T10:37:42.228Z,62.91
2024-05-09T10:40:23.383Z,60.15
2024-05-09T10:42:57.570Z,59.68
2024-05-09T10:45:28.609Z,59.20
2024-05-09T10:47:56.789Z,59.16
2024-05-09T10:50:28.963Z,51.19
2024-05-09T10:53:00.154Z,50.93
2024-05-09T10:55:28.109Z,60.51
2024-05-09T10:57:56.276Z,52.27
2024-05-09T11:00:33.986Z,59.77
2024-05-09T11:03:07.081Z,55.68
2024-05-09T11:05:36.650Z,52.86
2024-05-09T11:08:05.636Z,53.82
2024-05-09T11:10:34.747Z,57.53
2024-05-09T11:13:02.974Z,57.83
2024-05-09T11:15:38.656Z,58.74
2024-05-09T11:18:24.632Z,56.35
2024-05-09T11:20:54.370Z,54.60
2024-05-09T11:23:23.627Z,57.03
2024-05-09T11:25:52.697Z,52.70
2024-05-09T11:28:22.233Z,60.33
2024-05-09T11:30:51.503Z,57.28
2024-05-09T11:33:22.630Z,56.40
2024-05-09T11:35:50.705Z,54.81
2024-05-09T11:38:18.518Z,61.40
2024-05-09T11:40:46.504Z,53.32
2024-05-09T11:43:14.985Z,60.19
2024-05-09T11:45:43.517Z,63.80
2024-05-09T11:48:11.698Z,61.60
2024-05-09T11:50:42.514Z,55.75
2024-05-09T11:53:10.937Z,59.46
2024-05-09T11:55:39.321Z,51.04
2024-05-09T11:58:07.779Z,55.72
2024-05-09T12:00:37.588Z,53.11
2024-05-09T12:03:06.687Z,46.11
2024-05-09T12:05:34.944Z,49.64
2024-05-09T12:08:06.704Z,47.97
2024-05-09T12:10:36.640Z,47.51
2024-05-09T12:13:06.836Z,47.16
2024-05-09T12:15:37.919Z,51.25
2024-05-09T12:18:08.227Z,44.00
2024-05-09T12:20:39.250Z,49.75
2024-05-09T12:23:10.932Z,47.96
2024-05-09T12:25:40.169Z,46.46
2024-05-09T12:28:11.538Z,47.32
2024-05-09T12:30:41.293Z,42.48
2024-05-09T12:33:12.181Z,42.83
2024-05-09T12:35:44.478Z,51.53
2024-05-09T12:38:17.311Z,53.00
2024-05-09T12:40:45.771Z,57.99
2024-05-09T12:43:13.760Z,53.61
2024-05-09T12:45:42.228Z,53.74
2024-05-09T12:48:10.592Z,54.53
2024-05-09T12:50:38.632Z,50.14
2024-05-09T12:53:06.539Z,51.13
2024-05-09T12:55:44.783Z,49.21
2024-05-09T12:58:21.297Z,50.63
2024-05-09T13:00:49.924Z,46.89
2024-05-09T13:03:18.219Z,46.16
2024-05-09T13:05:46.624Z,44.00
2024-05-09T13:08:15.435Z,49.15
2024-05-09T13:10:46.674Z,46.50
2024-05-09T13:13:14.889Z,46.64
2024-05-09T13:15:42.970Z,44.90
2024-05-09T13:18:10.934Z,45.81
2024-05-09T13:20:38.818Z,48.75
2024-05-09T13:23:08.555Z,48.26
2024-05-09T13:25:37.898Z,47.79
2024-05-09T13:28:09.170Z,45.75
2024-05-09T13:30:40.938Z,44.99
2024-05-09T13:33:11.814Z,44.90
2024-05-09T13:35:47.130Z,46.79
2024-05-09T13:38:19.178Z,47.80
2024-05-09T13:40:47.822Z,51.02
2024-05-09T13:43:19.006Z,47.09
2024-05-09T13:45:47.865Z,45.53
2024-05-09T13:48:15.982Z,43.47
2024-05-09T13:50:44.077Z,44.98
2024-05-09T13:53:12.010Z,44.24
2024-05-09T13:55:40.501Z,43.34
2024-05-09T13:58:09.804Z,41.71
2024-05-09T14:00:46.566Z,41.77
2024-05-09T14:03:19.311Z,42.01
2024-05-09T14:05:49.972Z,41.07
2024-05-09T14:08:19.148Z,44.13
2024-05-09T14:10:47.528Z,43.96
2024-05-09T14:13:16.403Z,43.64
2024-05-09T14:15:47.745Z,43.10
2024-05-09T14:18:16.030Z,45.96
2024-05-09T14:20:44.014Z,43.05
2024-05-09T14:23:12.007Z,43.43
2024-05-09T14:25:42.764Z,43.37
2024-05-09T14:28:12.802Z,45.44
2024-05-09T14:30:41.713Z,46.77
2024-05-09T14:33:12.651Z,42.79
2024-05-09T14:35:40.698Z,43.79
2024-05-09T14:38:09.253Z,43.78
2024-05-09T14:40:42.273Z,47.52
2024-05-09T14:43:13.677Z,47.34
2024-05-09T14:45:42.648Z,46.17
2024-05-09T14:48:15.852Z,48.75
2024-05-09T14:50:44.155Z,47.51
2024-05-09T14:53:13.840Z,49.88
2024-05-09T14:55:43.707Z,50.99
2024-05-09T14:58:12.800Z,48.86
2024-05-09T15:00:46.708Z,46.16
2024-05-09T15:03:21.890Z,49.99
2024-05-09T15:05:51.482Z,52.15
2024-05-09T15:08:20.290Z,50.45
2024-05-09T15:10:48.598Z,52.55
2024-05-09T15:13:17.148Z,53.33
2024-05-09T15:15:45.556Z,53.41
2024-05-09T15:18:13.944Z,47.73
2024-05-09T15:20:45.343Z,48.57
2024-05-09T15:23:14.092Z,48.71
2024-05-09T15:25:42.374Z,46.00
2024-05-09T15:28:10.324Z,45.97
2024-05-09T15:30:40.129Z,47.06
2024-05-09T15:33:09.537Z,49.82
2024-05-09T15:35:37.454Z,47.17
2024-05-09T15:38:08.439Z,49.85
2024-05-09T15:40:39.983Z,50.37
2024-05-09T15:43:11.343Z,47.55
2024-05-09T15:45:41.122Z,53.02
2024-05-09T15:48:10.973Z,54.34
2024-05-09T15:50:41.677Z,49.87
2024-05-09T15:53:13.546Z,54.32
2024-05-09T15:55:43.255Z,50.21
2024-05-09T15:58:11.426Z,55.46
2024-05-09T16:00:42.394Z,53.17
2024-05-09T16:03:13.962Z,57.69
2024-05-09T16:05:44.322Z,55.24
2024-05-09T16:08:16.047Z,56.98
2024-05-09T16:10:44.905Z,50.61
2024-05-09T16:13:14.017Z,53.85
2024-05-09T16:15:43.278Z,49.12
2024-05-09T16:18:11.734Z,48.27
2024-05-09T16:20:42.306Z,51.40
2024-05-09T16:23:11.948Z,48.36
2024-05-09T16:25:42.751Z,46.12
2024-05-09T16:28:11.793Z,46.70
2024-05-09T16:30:40.226Z,51.56
2024-05-09T16:33:08.968Z,51.66
2024-05-09T16:35:37.769Z,48.87
2024-05-09T16:38:06.555Z,51.78
2024-05-09T16:40:39.208Z,52.99
2024-05-09T16:43:13.340Z,56.32
2024-05-09T16:45:44.107Z,57.42
2024-05-09T16:48:12.871Z,58.54
2024-05-09T16:50:41.330Z,60.74
2024-05-09T16:53:09.302Z,60.79
2024-05-09T16:55:37.421Z,65.10
2024-05-09T16:58:07.186Z,66.72
2024-05-09T17:00:42.113Z,67.90
2024-05-09T17:03:14.799Z,69.42
2024-05-09T17:05:44.208Z,71.67
2024-05-09T17:08:12.801Z,73.17
2024-05-09T17:10:40.909Z,77.36
2024-05-09T17:13:08.941Z,80.70
2024-05-09T17:15:39.695Z,82.31
2024-05-09T17:18:08.069Z,86.27
2024-05-09T17:20:37.572Z,90.62
2024-05-09T17:23:06.702Z,92.31
2024-05-09T17:25:34.981Z,95.58
2024-05-09T17:28:03.484Z,98.30
2024-05-09T17:30:35.778Z,100.00
2024-05-09T17:33:09.611Z,100.00
2024-05-09T17:35:38.918Z,100.00
2024-05-09T17:38:07.430Z,100.00
2024-05-09T17:40:37.613Z,100.00
2024-05-09T17:43:08.604Z,100.00
2024-05-09T17:45:38.057Z,100.00
2024-05-09T17:48:10.685Z,100.00
2024-05-09T17:50:41.203Z,100.00
2024-05-09T17:53:09.944Z,100.00
2024-05-09T17:55:40.472Z,100.00
2024-05-09T17:58:09.124Z,100.00
2024-05-09T18:00:40.399Z,100.00
2024-05-09T18:03:13.847Z,100.00
2024-05-09T18:05:44.111Z,100.00
2024-05-09T18:08:13.369Z,100.00
2024-05-09T18:10:42.486Z,100.00
2024-05-09T18:13:11.990Z,100.00
2024-05-09T18:15:41.069Z,100.00
2024-05-09T18:18:11.965Z,100.00
2024-05-09T18:20:44.504Z,100.00
2024-05-09T18:23:16.782Z,100.00
2024-05-09T18:25:46.396Z,100.00
2024-05-09T18:28:15.442Z,100.00
2024-05-09T18:30:43.592Z,100.00
2024-05-09T18:33:15.303Z,100.00
2024-05-09T18:35:44.079Z,100.00
2024-05-09T18:38:12.584Z,100.00
2024-05-09T18:40:42.975Z,100.00
2024-05-09T18:43:13.323Z,100.00
2024-05-09T18:45:41.905Z,100.00
2024-05-09T18:48:10.314Z,100.00
2024-05-09T18:50:41.804Z,100.00
2024-05-09T18:53:12.544Z,100.00
2024-05-09T18:55:41.682Z,100.00
2024-05-09T18:58:09.847Z,100.00
2024-05-09T19:00:40.371Z,100.00
2024-05-09T19:03:13.205Z,100.00
2024-05-09T19:05:46.244Z,100.00
2024-05-09T19:08:15.412Z,100.00
2024-05-09T19:10:43.980Z,100.00
2024-05-09T19:13:13.977Z,100.00
2024-05-09T19:15:43.949Z,100.00
2024-05-09T19:18:13.677Z,100.00
2024-05-09T19:20:45.329Z,100.00
2024-05-09T19:23:13.680Z,100.00
2024-05-09T19:25:41.680Z,100.00
2024-05-09T19:28:10.230Z,100.00
2024-05-09T19:30:41.751Z,100.00
2024-05-09T19:33:12.448Z,100.00
2024-05-09T19:35:41.700Z,100.00
2024-05-09T19:38:12.525Z,100.00
2024-05-09T19:40:40.993Z,100.00
2024-05-09T19:43:09.810Z,100.00
2024-05-09T19:45:37.866Z,100.00
2024-05-09T19:48:07.299Z,100.00
2024-05-09T19:50:41.675Z,100.00
2024-05-09T19:53:15.447Z,100.00
2024-05-09T19:55:43.416Z,100.00
2024-05-09T19:58:12.300Z,100.00
2024-05-09T20:00:43.029Z,100.00
2024-05-09T20:03:13.356Z,100.00
2024-05-09T20:05:42.716Z,100.00
2024-05-09T20:08:10.739Z,100.00
2024-05-09T20:10:41.630Z,100.00
2024-05-09T20:13:09.701Z,100.00
2024-05-09T20:15:38.081Z,100.00
2024-05-09T20:18:07.310Z,100.00
2024-05-09T20:20:40.099Z,100.00
2024-05-09T20:23:11.200Z,100.00
2024-05-09T20:25:42.328Z,100.00
2024-05-09T20:28:11.079Z,100.00
2024-05-09T20:30:39.805Z,100.00
2024-05-09T20:33:09.062Z,100.00
2024-05-09T20:35:37.871Z,100.00
2024-05-09T20:38:06.086Z,100.00
2024-05-09T20:40:37.907Z,100.00
2024-05-09T20:43:11.104Z,100.00
2024-05-09T20:45:39.523Z,100.00
2024-05-09T20:48:09.314Z,100.00
2024-05-09T20:50:40.853Z,100.00
2024-05-09T20:53:11.572Z,100.00
2024-05-09T20:55:39.666Z,100.00
2024-05-09T20:58:10.724Z,100.00
2024-05-09T21:00:42.560Z,100.00
2024-05-09T21:03:14.454Z,100.00
2024-05-09T21:05:43.925Z,100.00
2024-05-09T21:08:11.923Z,100.00
2024-05-09T21:10:39.893Z,100.00
2024-05-09T21:13:10.687Z,100.00
2024-05-09T21:15:38.687Z,100.00
2024-05-09T21:18:06.792Z,100.00
2024-05-09T21:20:35.397Z,100.00
2024-05-09T21:23:03.835Z,100.00
2024-05-09T21:25:32.375Z,100.00
2024-05-09T21:28:00.896Z,100.00
2024-05-09T21:30:40.478Z,100.00
2024-05-09T21:33:13.457Z,100.00
2024-05-09T21:35:43.394Z,100.00
2024-05-09T21:38:11.822Z,100.00
2024-05-09T21:40:39.808Z,100.00
2024-05-09T21:43:08.240Z,100.00
2024-05-09T21:45:39.509Z,100.00
2024-05-09T21:48:08.770Z,100.00
2024-05-09T21:50:40.923Z,100.00
2024-05-09T21:53:10.489Z,100.00
2024-05-09T21:55:38.547Z,100.00
2024-05-09T21:58:06.521Z,100.00
2024-05-09T22:00:37.940Z,100.00
2024-05-09T22:03:11.186Z,100.00
2024-05-09T22:05:40.238Z,100.00
2024-05-09T22:08:08.847Z,100.00
2024-05-09T22:10:37.572Z,100.00
2024-05-09T22:13:06.976Z,100.00
2024-05-09T22:15:37.668Z,100.00
2024-05-09T22:18:10.757Z,100.00
2024-05-09T22:20:39.981Z,100.00
2024-05-09T22:23:08.878Z,100.00
2024-05-09T22:25:37.631Z,100.00
2024-05-09T22:28:06.854Z,100.00
2024-05-09T22:30:38.576Z,100.00
2024-05-09T22:33:12.082Z,100.00
2024-05-09T22:35:41.463Z,100.00
2024-05-09T22:38:09.459Z,100.00
2024-05-09T22:40:46.041Z,100.00
2024-05-09T22:43:21.762Z,100.00
2024-05-09T22:45:51.918Z,100.00
2024-05-09T22:48:22.753Z,100.00
2024-05-09T22:50:50.661Z,100.00
2024-05-09T22:53:18.964Z,100.00
2024-05-09T22:55:46.879Z,100.00
2024-05-09T22:58:15.354Z,100.00
2024-05-09T23:00:43.917Z,100.00
2024-05-09T23:03:11.961Z,100.00
2024-05-09T23:05:42.708Z,100.00
2024-05-09T23:08:10.891Z,100.00
2024-05-09T23:10:39.431Z,100.00
2024-05-09T23:13:08.384Z,100.00
2024-05-09T23:15:37.728Z,100.00
2024-05-09T23:18:06.933Z,100.00
2024-05-09T23:20:38.654Z,100.00
2024-05-09T23:23:11.913Z,100.00
2024-05-09T23:25:41.095Z,100.00
2024-05-09T23:28:09.377Z,100.00
2024-05-09T23:30:40.191Z,100.00
2024-05-09T23:33:10.624Z,100.00
2024-05-09T23:35:39.470Z,100.00
2024-05-09T23:38:10.463Z,100.00
2024-05-09T23:40:40.829Z,100.00
2024-05-09T23:43:10.707Z,100.00
2024-05-09T23:45:39.359Z,100.00
2024-05-09T23:48:08.273Z,100.00
2024-05-09T23:50:38.374Z,100.00
2024-05-09T23:53:10.782Z,100.00
2024-05-09T23:55:39.578Z,100.00
2024-05-09T23:58:07.915Z,100.00
